Time;durP1;ratioP1;P1;durP2;ratioP2;P2;SDS_P1;SDS_P2;PMS_P1;PMS_P2;Temp;Humidity;BMP_temperature;BMP_pressure;BME280_temperature;BME280_humidity;BME280_pressure;Samples;Min_cycle;Max_cycle;Signal;HPM_P1;HPM_P2
2021/06/26 00:01:52;;;;;;;0.10;0.10;;;;;;;13.33;67.42;100432.91;6188437;23;20005;-75
2021/06/26 00:04:17;;;;;;;0.05;0.05;;;;;;;13.29;67.74;100429.94;6188163;23;20005;-75
2021/06/26 00:06:43;;;;;;;0.13;0.10;;;;;;;13.25;67.74;100426.91;6158464;23;20028;-73
2021/06/26 00:09:09;;;;;;;0.75;0.10;;;;;;;13.14;67.65;100413.53;6161477;23;20329;-73
2021/06/26 00:11:34;;;;;;;0.15;0.10;;;;;;;12.98;67.27;100396.34;6154055;23;20612;-73
2021/06/26 00:14:00;;;;;;;0.65;0.20;;;;;;;13.05;67.89;100422.38;6163664;23;20005;-72
2021/06/26 00:16:25;;;;;;;0.40;0.30;;;;;;;12.94;68.45;100415.31;6192250;23;20015;-71
2021/06/26 00:18:51;;;;;;;1.67;0.50;;;;;;;12.88;68.25;100427.41;6170774;23;20015;-72
2021/06/26 00:21:16;;;;;;;2.05;0.60;;;;;;;12.83;68.71;100419.19;6198405;23;20032;-74
2021/06/26 00:23:42;;;;;;;0.43;0.43;;;;;;;12.78;68.50;100421.97;6194693;23;20016;-74
2021/06/26 00:26:07;;;;;;;0.73;0.73;;;;;;;12.70;69.30;100421.44;6164645;23;20005;-74
2021/06/26 00:28:33;;;;;;;6.60;0.70;;;;;;;12.61;69.46;100425.84;6187350;23;19997;-73
2021/06/26 00:30:59;;;;;;;0.60;0.60;;;;;;;12.52;69.72;100430.28;6167622;23;20337;-74
2021/06/26 00:33:25;;;;;;;0.73;0.50;;;;;;;12.40;70.02;100427.84;6190753;23;20009;-75
2021/06/26 00:35:51;;;;;;;1.00;0.88;;;;;;;12.32;70.23;100425.66;6186136;23;20009;-73
2021/06/26 00:38:16;;;;;;;0.52;0.47;;;;;;;12.23;70.69;100425.41;6153992;23;20016;-71
2021/06/26 00:40:42;;;;;;;1.17;0.47;;;;;;;12.14;70.64;100425.16;6184327;23;20009;-73
2021/06/26 00:43:07;;;;;;;0.30;0.30;;;;;;;12.09;70.49;100427.06;6187454;23;20005;-71
2021/06/26 00:45:33;;;;;;;0.80;0.80;;;;;;;12.01;70.63;100421.03;6161732;23;20020;-72
2021/06/26 00:47:58;;;;;;;0.50;0.50;;;;;;;11.97;70.50;100425.47;6192403;23;20040;-72
2021/06/26 00:50:27;;;;;;;4.60;0.70;;;;;;;11.93;70.72;100426.22;6192234;23;20013;-74
2021/06/26 00:52:53;;;;;;;0.20;0.20;;;;;;;11.87;70.81;100426.25;6189271;23;20001;-74
2021/06/26 00:55:20;;;;;;;0.10;0.10;;;;;;;11.84;70.69;100417.72;6136418;23;20047;-71
2021/06/26 00:57:49;;;;;;;0.10;0.10;;;;;;;11.83;70.91;100424.34;6188376;23;20005;-72
2021/06/26 01:00:15;;;;;;;0.13;0.13;;;;;;;11.82;70.44;100428.16;6190082;23;20012;-73
2021/06/26 01:02:41;;;;;;;0.10;0.10;;;;;;;11.76;70.21;100421.03;6180752;23;20012;-73
2021/06/26 01:05:08;;;;;;;0.20;0.20;;;;;;;11.77;70.45;100420.78;6176509;23;20328;-72
2021/06/26 01:07:34;;;;;;;0.40;0.17;;;;;;;11.75;70.71;100427.63;6186657;23;20009;-74
2021/06/26 01:09:59;;;;;;;0.57;0.30;;;;;;;11.72;70.22;100423.50;6136728;23;20009;-73
2021/06/26 01:12:25;;;;;;;0.20;0.20;;;;;;;11.68;70.19;100420.50;6163827;23;20019;-73
2021/06/26 01:14:51;;;;;;;0.00;0.00;;;;;;;11.71;70.49;100424.63;6189884;23;20664;-71
2021/06/26 01:20:04;;;;;;;;;;;;;;;;;;;;;
2021/06/26 01:22:36;;;;;;;1.13;0.30;;;;;;;11.61;70.83;100417.19;6190588;23;20032;-75
2021/06/26 01:25:03;;;;;;;0.40;0.15;;;;;;;11.59;70.60;100424.84;6189316;23;20009;-76
2021/06/26 01:27:29;;;;;;;0.15;0.13;;;;;;;11.60;70.74;100421.03;6194985;23;20028;-75
2021/06/26 01:29:54;;;;;;;0.30;0.10;;;;;;;11.61;70.56;100419.09;6136462;23;20009;-74
2021/06/26 01:32:21;;;;;;;0.10;0.10;;;;;;;11.60;70.38;100418.28;6188515;23;20032;-75
2021/06/26 01:34:47;;;;;;;0.10;0.10;;;;;;;11.57;70.60;100416.09;6193934;23;20001;-75
2021/06/26 01:37:13;;;;;;;0.00;0.00;;;;;;;11.58;70.44;100423.22;6190711;23;20017;-75
2021/06/26 01:39:39;;;;;;;0.00;0.00;;;;;;;11.57;70.38;100420.78;6188318;23;20036;-72
2021/06/26 01:42:05;;;;;;;0.00;0.00;;;;;;;11.59;70.38;100424.84;6188514;23;20005;-73
2021/06/26 01:44:31;;;;;;;0.13;0.10;;;;;;;11.56;70.25;100417.19;6190175;23;20005;-73
2021/06/26 01:46:56;;;;;;;1.65;0.10;;;;;;;11.57;70.12;100421.56;6183745;23;20016;-73
2021/06/26 01:49:22;;;;;;;0.20;0.20;;;;;;;11.51;70.62;100411.72;6159213;23;20005;-73
2021/06/26 01:51:48;;;;;;;0.00;0.00;;;;;;;11.51;70.34;100417.19;6186233;23;20036;-73
2021/06/26 01:54:14;;;;;;;0.25;0.10;;;;;;;11.49;70.23;100419.38;6183801;23;20005;-74
2021/06/26 01:56:40;;;;;;;0.15;0.10;;;;;;;11.47;70.17;100416.91;6191307;23;20005;-73
2021/06/26 01:59:06;;;;;;;0.00;0.00;;;;;;;11.46;70.32;100420.75;6189364;23;20013;-72
2021/06/26 02:01:35;;;;;;;0.17;0.17;;;;;;;11.46;70.25;100419.91;6187409;23;20033;-71
2021/06/26 02:04:01;;;;;;;0.10;0.10;;;;;;;11.44;70.27;100425.66;6161473;23;20013;-73
2021/06/26 02:06:27;;;;;;;0.10;0.10;;;;;;;11.43;70.16;100424.00;6188455;23;20020;-73
2021/06/26 02:08:52;;;;;;;0.08;0.08;;;;;;;11.41;70.79;100422.66;6192965;23;20080;-74
2021/06/26 02:11:18;;;;;;;0.10;0.10;;;;;;;11.36;70.28;100418.00;6161150;23;20036;-74
2021/06/26 02:13:43;;;;;;;0.20;0.20;;;;;;;11.32;70.01;100417.72;6185917;23;20005;-73
2021/06/26 02:16:09;;;;;;;0.20;0.20;;;;;;;11.29;70.47;100414.72;6157394;23;20100;-73
2021/06/26 02:18:34;;;;;;;0.00;0.00;;;;;;;11.24;70.41;100407.28;6184434;23;20072;-72
2021/06/26 02:21:00;;;;;;;0.10;0.10;;;;;;;11.14;70.76;100401.78;6157074;23;20120;-73
2021/06/26 02:23:27;;;;;;;0.63;0.20;;;;;;;11.17;70.86;100417.69;6181966;23;20016;-73
2021/06/26 02:25:53;;;;;;;0.75;0.50;;;;;;;11.15;70.72;100417.13;6184744;23;20005;-72
2021/06/26 02:28:18;;;;;;;0.70;0.70;;;;;;;11.07;71.10;100412.16;6155043;23;20067;-72
2021/06/26 02:30:44;;;;;;;0.35;0.22;;;;;;;11.05;71.01;100415.19;6158655;23;20033;-72
2021/06/26 02:33:09;;;;;;;0.20;0.20;;;;;;;11.03;71.16;100416.56;6155550;23;20009;-72
2021/06/26 02:35:35;;;;;;;0.20;0.20;;;;;;;10.97;71.14;100419.28;6160105;23;20016;-73
2021/06/26 02:38:00;;;;;;;0.63;0.38;;;;;;;10.91;71.53;100409.41;6160558;23;20093;-73
2021/06/26 02:40:26;;;;;;;0.47;0.45;;;;;;;10.86;71.13;100406.63;6184941;23;20486;-73
2021/06/26 02:42:51;;;;;;;0.45;0.43;;;;;;;10.81;71.68;100409.38;6157422;23;20096;-73
2021/06/26 02:45:16;;;;;;;1.35;0.57;;;;;;;10.81;71.89;100406.63;6159522;23;20317;-72
2021/06/26 02:47:42;;;;;;;0.22;0.17;;;;;;;10.78;71.31;100409.91;6185979;23;20436;-74
2021/06/26 02:50:09;;;;;;;0.20;0.20;;;;;;;10.77;71.68;100398.13;6188995;23;20017;-73
2021/06/26 02:52:35;;;;;;;0.20;0.20;;;;;;;10.76;70.89;100403.88;6191156;23;20001;-74
2021/06/26 02:55:02;;;;;;;0.25;0.25;;;;;;;10.73;71.70;100396.19;6193862;23;20451;-74
2021/06/26 02:57:27;;;;;;;0.20;0.20;;;;;;;10.78;70.96;100398.97;6161410;23;20036;-73
2021/06/26 02:59:52;;;;;;;0.40;0.40;;;;;;;10.80;70.82;100396.78;6190564;23;20005;-75
2021/06/26 03:02:18;;;;;;;0.20;0.20;;;;;;;10.89;71.10;100399.81;6143214;23;20013;-72
2021/06/26 03:04:44;;;;;;;0.30;0.25;;;;;;;10.90;70.97;100396.81;6166700;23;20012;-72
2021/06/26 03:07:10;;;;;;;0.35;0.35;;;;;;;10.88;71.03;100399.00;6190165;23;20009;-72
2021/06/26 03:09:36;;;;;;;0.10;0.10;;;;;;;10.83;71.16;100388.03;6183853;23;20489;-72
2021/06/26 03:12:03;;;;;;;0.10;0.10;;;;;;;10.87;70.98;100394.63;6187841;23;20009;-73
2021/06/26 03:14:28;;;;;;;0.30;0.20;;;;;;;10.92;71.26;100399.28;6194060;23;20083;-72
2021/06/26 03:16:54;;;;;;;0.20;0.10;;;;;;;10.86;70.83;100390.22;6191852;23;20021;-72
2021/06/26 03:19:19;;;;;;;0.10;0.10;;;;;;;10.88;71.46;100393.53;6166107;23;20031;-73
2021/06/26 03:21:45;;;;;;;0.20;0.20;;;;;;;10.97;71.17;100402.84;6189474;23;20338;-71
2021/06/26 03:24:11;;;;;;;0.20;0.20;;;;;;;10.94;70.72;100395.19;6164893;23;20016;-71
2021/06/26 03:26:36;;;;;;;0.10;0.10;;;;;;;11.08;70.85;100409.19;6187915;23;20433;-71
2021/06/26 03:29:02;;;;;;;0.20;0.20;;;;;;;11.08;70.96;100402.88;6160612;23;20615;-72
2021/06/26 03:31:28;;;;;;;0.30;0.30;;;;;;;11.10;70.71;100407.00;6188523;23;20009;-71
2021/06/26 03:33:54;;;;;;;0.20;0.20;;;;;;;11.09;71.17;100405.34;6134113;23;20005;-72
2021/06/26 03:36:19;;;;;;;0.20;0.20;;;;;;;11.12;71.05;100409.47;6163114;23;20031;-71
2021/06/26 03:38:45;;;;;;;0.10;0.10;;;;;;;11.19;71.11;100410.03;6141330;23;20028;-71
2021/06/26 03:41:11;;;;;;;0.30;0.30;;;;;;;11.27;70.74;100417.72;6165895;23;20009;-72
2021/06/26 03:43:36;;;;;;;1.00;0.57;;;;;;;11.30;70.28;100414.44;6187224;23;20750;-72
2021/06/26 03:46:02;;;;;;;1.75;0.52;;;;;;;11.29;70.48;100415.53;6188515;23;20024;-70
2021/06/26 03:48:27;;;;;;;2.55;0.60;;;;;;;11.27;70.96;100417.72;6191959;23;20427;-73
2021/06/26 03:50:55;;;;;;;0.43;0.43;;;;;;;11.26;70.93;100416.06;6193082;23;20009;-72
2021/06/26 03:53:20;;;;;;;1.25;0.50;;;;;;;11.26;71.11;100418.81;6191620;23;20052;-71
2021/06/26 03:55:51;;;;;;;1.40;1.40;;;;;;;11.20;71.44;100421.78;6191153;23;20013;-71
2021/06/26 03:58:25;;;;;;;1.10;1.10;;;;;;;11.14;71.37;100423.69;6140244;23;20015;-70
2021/06/26 04:00:51;;;;;;;0.82;0.82;;;;;;;11.07;71.70;100431.31;6192279;23;20008;-71
2021/06/26 04:03:17;;;;;;;0.77;0.77;;;;;;;11.02;71.55;100425.84;6189938;23;19993;-71
2021/06/26 04:05:43;;;;;;;0.30;0.30;;;;;;;10.99;71.83;100436.25;6191069;23;20005;-73
2021/06/26 04:08:10;;;;;;;0.68;0.68;;;;;;;10.98;71.91;100434.59;6189059;23;20043;-74
2021/06/26 04:10:36;;;;;;;0.50;0.50;;;;;;;10.98;71.81;100437.34;6194897;23;20009;-74
2021/06/26 04:13:02;;;;;;;0.20;0.20;;;;;;;11.00;71.98;100435.16;6190379;23;20005;-74
2021/06/26 04:15:27;;;;;;;0.35;0.35;;;;;;;11.02;71.93;100431.31;6168780;23;20330;-75
2021/06/26 04:17:53;;;;;;;0.22;0.22;;;;;;;11.05;71.76;100436.25;6138296;23;20009;-75
2021/06/26 04:20:18;;;;;;;0.35;0.35;;;;;;;11.06;71.91;100432.44;6165595;23;20025;-73
2021/06/26 04:22:45;;;;;;;0.20;0.20;;;;;;;11.07;71.74;100436.78;6193034;23;20503;-74
2021/06/26 04:25:13;;;;;;;0.20;0.20;;;;;;;11.10;72.14;100444.50;6169704;23;20021;-75
2021/06/26 04:27:39;;;;;;;0.30;0.30;;;;;;;11.15;71.73;100441.75;6166612;23;20017;-74
2021/06/26 04:30:05;;;;;;;0.45;0.45;;;;;;;11.16;71.56;100438.75;6162512;23;20009;-73
2021/06/26 04:32:30;;;;;;;1.85;0.68;;;;;;;11.15;71.92;100444.50;6191137;23;20009;-73
2021/06/26 04:34:56;;;;;;;0.35;0.30;;;;;;;11.12;71.59;100443.13;6164208;23;20009;-72
2021/06/26 04:37:24;;;;;;;0.40;0.40;;;;;;;11.12;71.32;100445.03;6140501;23;20344;-74
2021/06/26 04:39:50;;;;;;;0.47;0.47;;;;;;;11.12;71.73;100447.78;6184670;23;20009;-75
2021/06/26 04:42:15;;;;;;;0.10;0.10;;;;;;;11.21;71.80;100448.88;6189175;23;20027;-72
2021/06/26 04:44:41;;;;;;;0.10;0.10;;;;;;;11.32;71.57;100436.06;6194195;23;20361;-71
2021/06/26 04:47:07;;;;;;;0.10;0.10;;;;;;;11.48;71.07;100450.59;6164258;23;20019;-74
2021/06/26 04:49:33;;;;;;;0.30;0.30;;;;;;;11.59;70.89;100451.44;6194493;23;20001;-73
2021/06/26 04:51:58;;;;;;;0.30;0.30;;;;;;;11.62;70.32;100450.88;6188076;23;20013;-77
2021/06/26 04:54:24;;;;;;;0.25;0.25;;;;;;;11.67;70.62;100456.38;6169747;23;20005;-76
2021/06/26 04:56:49;;;;;;;0.38;0.38;;;;;;;11.70;70.28;100453.91;6194601;23;20001;-75
2021/06/26 04:59:15;;;;;;;0.30;0.30;;;;;;;11.72;70.40;100455.56;6189447;23;20012;-73
2021/06/26 05:01:40;;;;;;;0.28;0.28;;;;;;;11.74;70.03;100458.84;6161062;23;20029;-73
2021/06/26 05:04:06;;;;;;;0.13;0.13;;;;;;;11.83;70.38;100457.22;6188623;23;20012;-73
2021/06/26 05:06:31;;;;;;;0.22;0.22;;;;;;;11.88;70.35;100454.47;6161369;23;21054;-73
2021/06/26 05:08:58;;;;;;;0.30;0.30;;;;;;;11.92;70.34;100457.50;6181434;23;20385;-73
2021/06/26 05:11:23;;;;;;;0.30;0.30;;;;;;;11.95;69.97;100471.47;6185904;23;20044;-71
2021/06/26 05:13:49;;;;;;;0.20;0.20;;;;;;;12.01;69.93;100470.38;6162275;23;20019;-73
2021/06/26 05:16:14;;;;;;;2.80;0.40;;;;;;;12.14;70.02;100466.25;6181537;23;20021;-72
2021/06/26 05:18:39;;;;;;;0.20;0.20;;;;;;;12.23;69.57;100463.78;6182045;23;20091;-73
2021/06/26 05:21:06;;;;;;;0.30;0.30;;;;;;;12.34;70.04;100470.91;6181847;23;20015;-73
2021/06/26 05:23:32;;;;;;;0.28;0.28;;;;;;;12.42;69.72;100477.75;6159944;23;20316;-72
2021/06/26 05:25:58;;;;;;;0.20;0.20;;;;;;;12.49;69.69;100480.22;6165150;23;20009;-73
2021/06/26 05:28:23;;;;;;;0.20;0.20;;;;;;;12.66;69.41;100475.22;6163630;23;20076;-72
2021/06/26 05:30:49;;;;;;;0.10;0.10;;;;;;;12.79;69.82;100470.25;6192600;23;20024;-72
2021/06/26 05:33:14;;;;;;;0.10;0.10;;;;;;;12.96;69.42;100473.47;6165524;23;20005;-74
2021/06/26 05:35:40;;;;;;;0.70;0.10;;;;;;;13.12;69.17;100470.66;6191005;23;20652;-75
2021/06/26 05:38:06;;;;;;;0.10;0.10;;;;;;;13.33;68.88;100483.19;6190518;23;20015;-75
2021/06/26 05:40:32;;;;;;;0.00;0.00;;;;;;;13.54;68.82;100489.41;6187844;23;20021;-73
2021/06/26 05:42:57;;;;;;;0.00;0.00;;;;;;;13.72;68.90;100484.34;6190894;23;20698;-73
2021/06/26 05:45:23;;;;;;;0.10;0.10;;;;;;;13.94;68.25;100479.25;6139500;23;20013;-73
2021/06/26 05:47:48;;;;;;;0.05;0.05;;;;;;;14.20;67.74;100489.19;6163588;23;20024;-72
2021/06/26 05:50:13;;;;;;;1.88;0.00;;;;;;;14.41;67.80;100490.66;6184418;23;20009;-74
2021/06/26 05:52:50;;;;;;;0.10;0.10;;;;;;;14.64;67.97;100489.03;6187189;23;20005;-73
2021/06/26 05:55:16;;;;;;;0.20;0.20;;;;;;;14.78;66.86;100493.88;6178748;23;20012;-72
2021/06/26 05:57:43;;;;;;;0.13;0.10;;;;;;;14.89;67.55;100489.06;6182533;23;20008;-72
2021/06/26 06:00:09;;;;;;;0.20;0.20;;;;;;;14.94;66.86;100491.78;6188477;23;20083;-73
2021/06/26 06:02:35;;;;;;;0.20;0.20;;;;;;;15.03;66.96;100500.19;6156163;23;20008;-72
2021/06/26 06:05:00;;;;;;;0.25;0.25;;;;;;;15.09;66.33;100502.56;6158931;23;20013;-73
2021/06/26 06:07:25;;;;;;;0.20;0.20;;;;;;;15.18;66.09;100511.81;6190799;23;20012;-75
2021/06/26 06:09:51;;;;;;;0.20;0.20;;;;;;;15.24;66.84;100506.25;6162579;23;20020;-73
2021/06/26 06:12:16;;;;;;;0.20;0.20;;;;;;;15.38;66.39;100517.38;6193469;23;20057;-72
2021/06/26 06:14:42;;;;;;;0.10;0.10;;;;;;;15.51;65.92;100511.94;6164650;23;20032;-74
2021/06/26 06:17:07;;;;;;;0.30;0.30;;;;;;;15.60;65.71;100519.56;6192539;23;20008;-73
2021/06/26 06:19:33;;;;;;;0.20;0.20;;;;;;;15.67;65.51;100520.81;6192729;23;20079;-74
2021/06/26 06:21:58;;;;;;;0.25;0.25;;;;;;;15.75;65.51;100527.59;6155488;23;20076;-74
2021/06/26 06:24:24;;;;;;;0.13;0.13;;;;;;;15.79;65.40;100520.41;6193374;23;20683;-73
2021/06/26 06:26:49;;;;;;;0.10;0.10;;;;;;;15.84;64.93;100522.25;6166496;23;20008;-73
2021/06/26 06:29:15;;;;;;;0.20;0.20;;;;;;;15.93;65.26;100519.63;6194526;23;20012;-74
2021/06/26 06:31:40;;;;;;;0.28;0.10;;;;;;;16.03;65.04;100527.75;6193987;23;20084;-74
2021/06/26 06:34:06;;;;;;;0.30;0.30;;;;;;;16.13;64.58;100533.09;6169499;23;20009;-73
2021/06/26 06:36:32;;;;;;;0.28;0.28;;;;;;;16.29;64.77;100524.59;6192061;23;20028;-74
2021/06/26 06:38:57;;;;;;;0.30;0.30;;;;;;;16.47;64.32;100526.47;6192962;23;20044;-73
2021/06/26 06:41:23;;;;;;;0.50;0.50;;;;;;;16.61;63.89;100531.19;6188723;23;20005;-73
2021/06/26 06:43:48;;;;;;;1.20;0.73;;;;;;;16.67;63.27;100535.50;6158621;23;20582;-74
2021/06/26 06:46:14;;;;;;;0.40;0.40;;;;;;;16.70;63.43;100530.19;6165255;23;20412;-71
2021/06/26 06:48:39;;;;;;;0.80;0.70;;;;;;;16.77;63.06;100529.78;6188398;23;20164;-71
2021/06/26 06:51:05;;;;;;;0.45;0.45;;;;;;;16.86;63.08;100533.47;6193124;23;20016;-73
2021/06/26 06:53:31;;;;;;;0.68;0.68;;;;;;;16.99;62.73;100531.88;6192819;23;20013;-73
2021/06/26 06:55:58;;;;;;;0.50;0.50;;;;;;;17.09;62.53;100536.38;6191498;23;20011;-74
2021/06/26 06:58:25;;;;;;;0.40;0.40;;;;;;;17.16;62.63;100536.78;6168295;23;20009;-74
2021/06/26 07:00:50;;;;;;;0.52;0.47;;;;;;;17.27;62.73;100531.84;6193138;23;20081;-74
2021/06/26 07:03:16;;;;;;;0.43;0.43;;;;;;;17.44;62.19;100531.22;6193074;23;20005;-73
2021/06/26 07:05:41;;;;;;;0.40;0.40;;;;;;;17.56;62.19;100533.47;6192176;23;20020;-74
2021/06/26 07:08:07;;;;;;;0.50;0.50;;;;;;;17.69;61.64;100537.31;6193401;23;20028;-73
2021/06/26 07:10:33;;;;;;;0.98;0.95;;;;;;;17.78;61.61;100524.38;6168906;23;20012;-74
2021/06/26 07:12:59;;;;;;;1.23;1.13;;;;;;;17.91;61.11;100534.59;6191269;23;20036;-73
2021/06/26 07:15:24;;;;;;;1.30;1.30;;;;;;;18.09;61.59;100529.22;6189397;23;20017;-74
2021/06/26 07:17:50;;;;;;;1.80;1.70;;;;;;;18.22;60.83;100536.63;6195105;23;20024;-76
2021/06/26 07:20:15;;;;;;;1.60;1.50;;;;;;;18.46;60.84;100532.72;6192723;23;20024;-73
2021/06/26 07:22:41;;;;;;;1.88;1.77;;;;;;;18.66;60.68;100543.28;6191771;23;19997;-74
2021/06/26 07:25:07;;;;;;;2.38;2.17;;;;;;;18.78;60.08;100539.91;6194468;23;20009;-74
2021/06/26 07:27:33;;;;;;;3.05;2.58;;;;;;;18.76;58.99;100535.81;6143150;23;20019;-74
2021/06/26 07:29:58;;;;;;;1.70;1.60;;;;;;;18.80;59.77;100525.72;6191694;23;20016;-73
2021/06/26 07:32:24;;;;;;;2.22;1.42;;;;;;;18.94;60.01;100529.25;6169900;23;20067;-75
2021/06/26 07:34:49;;;;;;;5.35;3.00;;;;;;;18.99;59.13;100523.53;6167144;23;20036;-74
2021/06/26 07:37:15;;;;;;;1.83;1.73;;;;;;;18.94;58.62;100526.47;6189653;23;20005;-75
2021/06/26 07:39:40;;;;;;;1.80;1.70;;;;;;;18.92;59.18;100517.66;6165767;23;20005;-74
2021/06/26 07:42:06;;;;;;;2.45;2.35;;;;;;;18.97;58.21;100523.06;6163070;23;20024;-74
2021/06/26 07:44:32;;;;;;;2.38;2.28;;;;;;;18.96;58.98;100517.84;6164752;23;20036;-74
2021/06/26 07:46:57;;;;;;;2.17;2.08;;;;;;;19.05;58.70;100523.41;6143838;23;20021;-74
2021/06/26 07:49:23;;;;;;;1.30;1.30;;;;;;;19.14;58.81;100527.03;6195402;23;20063;-74
2021/06/26 07:51:48;;;;;;;3.83;1.27;;;;;;;19.24;58.24;100529.50;6164397;23;20005;-74
2021/06/26 07:54:16;;;;;;;1.63;1.13;;;;;;;19.28;57.92;100541.56;6168851;23;20373;-74
2021/06/26 07:56:46;;;;;;;1.40;1.30;;;;;;;19.32;58.63;100539.81;6191470;23;20005;-75
2021/06/26 07:59:12;;;;;;;1.20;1.20;;;;;;;19.54;58.76;100532.50;6194101;23;20061;-75
2021/06/26 08:01:38;;;;;;;1.50;1.40;;;;;;;19.88;58.02;100526.19;6193239;23;20021;-74
2021/06/26 08:04:03;;;;;;;1.85;1.75;;;;;;;20.29;57.82;100523.22;6193656;23;20040;-74
2021/06/26 08:06:29;;;;;;;3.85;2.85;;;;;;;20.62;56.18;100526.25;6183431;23;20320;-74
2021/06/26 08:08:54;;;;;;;2.65;2.15;;;;;;;21.05;55.42;100528.03;6168583;23;20005;-73
2021/06/26 08:11:20;;;;;;;1.65;1.55;;;;;;;21.51;55.22;100535.84;6191006;23;20013;-74
2021/06/26 08:13:47;;;;;;;2.72;2.55;;;;;;;21.76;53.59;100534.03;6139071;23;20009;-72
2021/06/26 08:16:12;;;;;;;1.10;1.08;;;;;;;21.79;53.01;100525.00;6151566;23;20013;-74
2021/06/26 08:18:38;;;;;;;2.30;2.20;;;;;;;21.75;52.19;100526.84;6159802;23;20436;-74
2021/06/26 08:21:04;;;;;;;3.28;2.17;;;;;;;21.51;51.54;100516.34;6178931;23;20369;-73
2021/06/26 08:23:29;;;;;;;2.10;2.00;;;;;;;21.30;51.75;100522.69;6176045;23;20087;-74
2021/06/26 08:25:55;;;;;;;2.00;1.83;;;;;;;21.02;51.47;100522.34;6182545;23;20043;-75
2021/06/26 08:28:20;;;;;;;2.55;1.70;;;;;;;20.80;52.55;100520.66;6135605;23;20013;-74
2021/06/26 08:30:45;;;;;;;0.93;0.93;;;;;;;20.62;52.67;100526.25;6183129;23;20013;-73
2021/06/26 08:33:11;;;;;;;1.40;1.35;;;;;;;20.59;52.28;100521.34;6175649;23;20013;-74
2021/06/26 08:35:36;;;;;;;1.77;1.77;;;;;;;20.67;52.38;100514.97;6184447;23;20372;-73
2021/06/26 08:38:02;;;;;;;3.20;1.60;;;;;;;20.93;52.83;100523.19;6185370;23;20424;-74
2021/06/26 08:40:28;;;;;;;2.00;1.90;;;;;;;21.20;52.48;100511.94;6153564;23;20012;-74
2021/06/26 08:42:55;;;;;;;1.00;1.00;;;;;;;21.47;52.23;100504.28;6160452;23;20032;-73
2021/06/26 08:45:21;;;;;;;1.10;1.10;;;;;;;21.65;51.81;100500.22;6137704;23;20009;-74
2021/06/26 08:47:55;;;;;;;1.25;1.25;;;;;;;21.92;51.23;100517.53;6137640;23;20343;-75
2021/06/26 08:50:24;;;;;;;1.20;1.10;;;;;;;22.08;49.84;100510.16;6133857;23;20446;-72
2021/06/26 08:52:49;;;;;;;1.60;1.50;;;;;;;22.14;48.66;100506.00;6160582;23;20005;-74
2021/06/26 08:55:16;;;;;;;1.30;1.20;;;;;;;22.25;48.51;100502.78;6162427;23;20051;-73
2021/06/26 08:57:44;;;;;;;2.08;1.45;;;;;;;22.16;48.31;100508.44;6157070;23;20033;-73
2021/06/26 09:00:13;;;;;;;1.13;0.80;;;;;;;22.06;48.40;100504.13;6181265;23;20060;-75
2021/06/26 09:02:38;;;;;;;0.80;0.80;;;;;;;22.25;48.75;100517.56;6185705;23;20005;-74
2021/06/26 09:05:05;;;;;;;1.73;1.30;;;;;;;22.54;47.63;100517.75;6183838;23;20047;-73
2021/06/26 09:07:35;;;;;;;1.58;0.80;;;;;;;22.74;47.66;100505.72;6183000;23;20008;-74
2021/06/26 09:10:15;;;;;;;0.70;0.63;;;;;;;23.13;46.87;100500.66;6180092;23;20004;-73
2021/06/26 09:12:42;;;;;;;0.95;0.80;;;;;;;23.15;46.22;100503.88;6181111;23;20001;-74
2021/06/26 09:15:09;;;;;;;3.33;0.60;;;;;;;23.01;44.99;100503.41;6157803;23;20005;-73
2021/06/26 09:17:35;;;;;;;0.68;0.68;;;;;;;22.89;44.76;100506.19;6181508;23;20084;-73
2021/06/26 09:20:06;;;;;;;0.80;0.80;;;;;;;22.92;44.87;100511.06;6188964;23;20352;-74
2021/06/26 09:22:54;;;;;;;0.93;0.55;;;;;;;23.30;45.54;100518.28;6187211;23;20005;-72
2021/06/26 09:25:24;;;;;;;0.73;0.60;;;;;;;23.58;45.13;100514.75;6179783;23;20060;-75
2021/06/26 09:27:49;;;;;;;0.50;0.50;;;;;;;23.81;44.35;100518.63;6182899;23;20005;-74
2021/06/26 09:30:15;;;;;;;0.57;0.55;;;;;;;23.87;43.87;100522.88;6130364;23;20005;-75
2021/06/26 09:32:44;;;;;;;0.60;0.60;;;;;;;23.82;43.02;100520.28;6182395;23;20009;-74
2021/06/26 09:35:16;;;;;;;2.58;0.75;;;;;;;23.88;42.84;100518.88;6157845;23;20009;-73
2021/06/26 09:37:41;;;;;;;2.55;0.60;;;;;;;24.13;41.72;100524.38;6179182;23;20009;-74
2021/06/26 09:40:08;;;;;;;0.50;0.50;;;;;;;24.23;41.06;100526.66;6178099;23;20016;-74
2021/06/26 09:42:36;;;;;;;1.15;0.50;;;;;;;24.17;39.53;100518.91;6156108;23;20001;-74
2021/06/26 09:45:05;;;;;;;0.88;0.47;;;;;;;24.03;39.81;100510.91;6153687;23;20001;-75
2021/06/26 09:47:44;;;;;;;0.63;0.63;;;;;;;23.92;38.98;100512.59;6182339;23;20088;-74
2021/06/26 09:50:26;;;;;;;0.85;0.60;;;;;;;23.85;39.54;100519.56;6156861;23;20009;-74
2021/06/26 09:53:00;;;;;;;0.90;0.43;;;;;;;23.91;38.59;100522.97;6125802;23;20016;-73
2021/06/26 09:55:26;;;;;;;1.60;0.50;;;;;;;23.95;37.06;100506.31;6184260;23;20028;-73
2021/06/26 09:57:53;;;;;;;0.50;0.50;;;;;;;23.88;36.76;100524.47;6186181;23;20492;-74
2021/06/26 10:00:22;;;;;;;0.63;0.63;;;;;;;23.82;36.42;100511.91;6186366;23;20008;-74
2021/06/26 10:02:47;;;;;;;0.65;0.65;;;;;;;23.88;36.68;100513.31;6160714;23;20324;-75
2021/06/26 10:05:14;;;;;;;0.43;0.30;;;;;;;23.98;37.38;100513.97;6184256;23;20015;-75
2021/06/26 10:07:41;;;;;;;0.50;0.50;;;;;;;24.07;36.01;100513.84;6133705;23;20015;-73
2021/06/26 10:10:10;;;;;;;0.40;0.40;;;;;;;24.23;36.25;100523.84;6184495;23;20001;-76
2021/06/26 10:12:36;;;;;;;0.98;0.40;;;;;;;24.58;36.03;100528.78;6184623;23;20005;-75
2021/06/26 10:15:03;;;;;;;2.33;0.60;;;;;;;25.18;36.57;100532.69;6155481;23;20013;-74
2021/06/26 10:17:29;;;;;;;0.20;0.20;;;;;;;25.52;34.50;100533.91;6186045;23;20012;-75
2021/06/26 10:19:56;;;;;;;0.40;0.40;;;;;;;25.96;34.56;100542.09;6158438;23;20021;-74
2021/06/26 10:22:21;;;;;;;3.28;0.57;;;;;;;26.78;34.50;100532.84;6184539;23;20020;-74
2021/06/26 10:24:48;;;;;;;0.55;0.55;;;;;;;27.50;33.42;100548.06;6183300;23;20009;-73
2021/06/26 10:27:23;;;;;;;1.95;0.50;;;;;;;28.45;32.32;100545.25;6185756;23;20432;-74
2021/06/26 10:29:49;;;;;;;0.43;0.40;;;;;;;28.58;31.34;100534.50;6158440;23;20017;-73
2021/06/26 10:32:17;;;;;;;0.52;0.38;;;;;;;29.20;32.02;100540.28;6186605;23;20447;-75
2021/06/26 10:34:46;;;;;;;0.52;0.40;;;;;;;30.36;31.62;100538.09;6156772;23;20032;-76
2021/06/26 10:37:20;;;;;;;0.65;0.40;;;;;;;31.59;28.72;100547.44;6184205;23;20008;-75
2021/06/26 10:39:47;;;;;;;2.63;0.52;;;;;;;32.75;28.86;100536.38;6178306;23;20087;-73
2021/06/26 10:42:17;;;;;;;0.20;0.20;;;;;;;33.98;28.67;100535.97;6184033;23;20028;-76
2021/06/26 10:44:50;;;;;;;1.23;0.20;;;;;;;35.41;26.52;100544.34;6188246;23;20009;-73
2021/06/26 10:47:32;;;;;;;0.30;0.25;;;;;;;36.55;26.38;100553.78;6192551;23;20001;-74
2021/06/26 10:50:22;;;;;;;0.30;0.22;;;;;;;36.38;22.77;100552.16;6194793;23;20017;-75
2021/06/26 10:52:53;;;;;;;0.40;0.32;;;;;;;36.45;22.91;100554.81;6183979;23;20001;-76
2021/06/26 10:55:26;;;;;;;0.35;0.30;;;;;;;36.19;22.85;100560.25;6184172;23;20009;-74
2021/06/26 10:57:52;;;;;;;0.30;0.30;;;;;;;35.51;22.16;100544.56;6185273;23;20033;-75
2021/06/26 11:00:29;;;;;;;0.35;0.20;;;;;;;35.29;21.85;100553.50;6109419;23;20009;-74
2021/06/26 11:02:54;;;;;;;0.32;0.32;;;;;;;34.23;20.68;100549.84;6186284;23;20005;-78
2021/06/26 11:05:28;;;;;;;0.30;0.30;;;;;;;33.54;21.94;100545.00;6188441;23;20019;-77
2021/06/26 11:07:53;;;;;;;0.47;0.40;;;;;;;33.30;21.77;100532.69;6184577;23;20068;-75
2021/06/26 11:10:19;;;;;;;0.50;0.30;;;;;;;32.89;22.11;100539.09;6159870;23;20338;-74
2021/06/26 11:12:46;;;;;;;0.40;0.40;;;;;;;32.92;21.32;100540.31;6180276;23;20012;-75
2021/06/26 11:15:12;;;;;;;0.25;0.25;;;;;;;33.04;22.18;100539.78;6159678;23;20032;-76
2021/06/26 11:17:43;;;;;;;0.47;0.47;;;;;;;33.29;22.18;100533.91;6156945;23;20008;-76
2021/06/26 11:20:12;;;;;;;0.77;0.43;;;;;;;33.34;21.28;100530.63;6158487;23;20020;-76
2021/06/26 11:22:38;;;;;;;3.08;0.40;;;;;;;33.04;20.94;100540.56;6181343;23;20012;-75
2021/06/26 11:25:09;;;;;;;1.35;0.28;;;;;;;32.68;21.22;100534.41;6185134;23;20080;-75
2021/06/26 11:27:34;;;;;;;0.25;0.10;;;;;;;32.33;21.79;100550.38;6180597;23;20009;-75